createdAt,value
2023-02-21T00:00:52.825Z,0.00
2023-02-21T00:01:52.839Z,0.00
2023-02-21T00:02:52.803Z,0.00
2023-02-21T00:03:52.793Z,0.00
2023-02-21T00:04:52.789Z,0.00
2023-02-21T00:05:52.830Z,0.00
2023-02-21T00:06:52.760Z,0.00
2023-02-21T00:07:52.751Z,0.00
2023-02-21T00:08:52.740Z,0.00
2023-02-21T00:09:52.728Z,0.00
2023-02-21T00:10:52.715Z,0.00
2023-02-21T00:11:52.702Z,0.00
2023-02-21T00:12:52.691Z,0.00
2023-02-21T00:13:52.680Z,0.00
2023-02-21T00:14:52.696Z,0.00
2023-02-21T00:15:52.656Z,0.00
2023-02-21T00:16:52.705Z,0.00
2023-02-21T00:17:52.634Z,0.00
2023-02-21T00:18:52.636Z,0.00
2023-02-21T00:19:52.613Z,0.00
2023-02-21T00:20:52.602Z,0.00
2023-02-21T00:21:52.589Z,0.00
2023-02-21T00:22:52.585Z,0.00
2023-02-21T00:23:52.577Z,0.00
2023-02-21T00:24:52.556Z,0.00
2023-02-21T00:25:52.542Z,0.00
2023-02-21T00:26:52.535Z,0.00
2023-02-21T00:27:52.519Z,0.00
2023-02-21T00:28:52.511Z,0.00
2023-02-21T00:29:52.496Z,0.00
2023-02-21T00:30:52.721Z,0.00
2023-02-21T00:31:52.477Z,0.00
2023-02-21T00:32:52.585Z,0.00
2023-02-21T00:33:52.454Z,0.00
2023-02-21T00:34:52.442Z,0.00
2023-02-21T00:35:52.426Z,0.00
2023-02-21T00:36:52.419Z,0.00
2023-02-21T00:37:52.430Z,0.00
2023-02-21T00:38:52.395Z,0.00
2023-02-21T00:39:52.383Z,0.00
2023-02-21T00:40:52.372Z,0.00
2023-02-21T00:41:52.358Z,0.00
2023-02-21T00:42:52.352Z,0.00
2023-02-21T00:43:52.338Z,0.00
2023-02-21T00:44:52.337Z,0.00
2023-02-21T00:45:52.369Z,0.00
2023-02-21T00:46:52.338Z,0.00
2023-02-21T00:47:52.328Z,0.00
2023-02-21T00:48:52.316Z,0.00
2023-02-21T00:49:52.307Z,0.00
2023-02-21T00:50:52.275Z,0.00
2023-02-21T00:51:52.245Z,0.00
2023-02-21T00:52:52.244Z,0.00
2023-02-21T00:53:52.223Z,0.00
2023-02-21T00:54:52.215Z,0.00
2023-02-21T00:55:52.200Z,0.00
2023-02-21T00:56:52.190Z,0.00
2023-02-21T00:57:52.182Z,0.00
2023-02-21T00:58:52.169Z,0.00
2023-02-21T00:59:52.158Z,0.00
2023-02-21T01:00:52.146Z,0.00
2023-02-21T01:01:52.131Z,0.00
2023-02-21T01:02:52.156Z,0.00
2023-02-21T01:03:52.110Z,0.00
2023-02-21T01:04:52.102Z,0.00
2023-02-21T01:05:52.091Z,0.00
2023-02-21T01:06:52.081Z,0.00
2023-02-21T01:07:52.071Z,0.00
2023-02-21T01:08:52.059Z,0.00
2023-02-21T01:09:52.047Z,0.00
2023-02-21T01:10:52.041Z,0.00
2023-02-21T01:11:52.071Z,0.00
2023-02-21T01:12:52.027Z,0.00
2023-02-21T01:13:52.007Z,0.00
2023-02-21T01:14:51.994Z,0.00
2023-02-21T01:15:52.062Z,0.00
2023-02-21T01:16:53.072Z,0.00
2023-02-21T01:17:51.967Z,0.00
2023-02-21T01:18:51.981Z,0.00
2023-02-21T01:19:51.939Z,0.00
2023-02-21T01:20:51.935Z,0.00
2023-02-21T01:21:51.945Z,0.00
2023-02-21T01:22:51.905Z,0.00
2023-02-21T01:23:51.892Z,0.00
2023-02-21T01:24:51.882Z,0.00
2023-02-21T01:25:51.870Z,0.00
2023-02-21T01:26:51.870Z,0.00
2023-02-21T01:27:51.848Z,0.00
2023-02-21T01:28:51.840Z,0.00
2023-02-21T01:29:51.826Z,0.00
2023-02-21T01:30:51.887Z,0.00
2023-02-21T01:31:51.809Z,0.00
2023-02-21T01:32:51.804Z,0.00
2023-02-21T01:33:51.785Z,0.00
2023-02-21T01:34:51.795Z,0.00
2023-02-21T01:35:51.757Z,0.00
2023-02-21T01:36:51.753Z,0.00
2023-02-21T01:37:51.740Z,0.00
2023-02-21T01:38:51.728Z,0.00
2023-02-21T01:39:51.722Z,0.00
2023-02-21T01:40:51.712Z,0.00
2023-02-21T01:41:51.694Z,0.00
2023-02-21T01:42:51.680Z,0.00
2023-02-21T01:43:51.665Z,0.00
2023-02-21T01:44:51.671Z,0.00
2023-02-21T01:45:51.726Z,0.00
2023-02-21T01:46:51.633Z,0.00
2023-02-21T01:47:51.628Z,0.00
2023-02-21T01:48:53.508Z,0.00
2023-02-21T01:49:51.613Z,0.00
2023-02-21T01:50:51.622Z,0.00
2023-02-21T01:51:51.575Z,0.00
2023-02-21T01:52:51.580Z,0.00
2023-02-21T01:53:51.556Z,0.00
2023-02-21T01:54:51.544Z,0.00
2023-02-21T01:55:51.529Z,0.00
2023-02-21T01:56:51.520Z,0.00
2023-02-21T01:57:51.508Z,0.00
2023-02-21T01:58:51.498Z,0.00
2023-02-21T01:59:51.487Z,0.00
2023-02-21T02:00:51.487Z,0.00
2023-02-21T02:01:51.479Z,0.00
2023-02-21T02:02:51.460Z,0.00
2023-02-21T02:03:51.440Z,0.00
2023-02-21T02:04:51.481Z,0.00
2023-02-21T02:05:51.419Z,0.00
2023-02-21T02:06:51.436Z,0.00
2023-02-21T02:07:51.396Z,0.00
2023-02-21T02:08:51.391Z,0.00
2023-02-21T02:09:51.372Z,0.00
2023-02-21T02:10:51.365Z,0.00
2023-02-21T02:11:51.350Z,0.00
2023-02-21T02:12:51.340Z,0.00
2023-02-21T02:13:51.327Z,0.00
2023-02-21T02:14:51.319Z,0.00
2023-02-21T02:15:51.332Z,0.00
2023-02-21T02:16:51.299Z,0.00
2023-02-21T02:17:51.289Z,0.00
2023-02-21T02:18:51.275Z,0.00
2023-02-21T02:19:51.290Z,0.00
2023-02-21T02:20:51.250Z,0.00
2023-02-21T02:21:51.243Z,0.00
2023-02-21T02:22:51.256Z,0.00
2023-02-21T02:23:51.222Z,0.00
2023-02-21T02:24:51.207Z,0.00
2023-02-21T02:25:51.196Z,0.00
2023-02-21T02:26:51.187Z,0.00
2023-02-21T02:27:51.177Z,0.00
2023-02-21T02:28:51.164Z,0.00
2023-02-21T02:29:51.152Z,0.00
2023-02-21T02:30:51.182Z,0.00
2023-02-21T02:31:51.294Z,0.00
2023-02-21T02:32:51.118Z,0.00
2023-02-21T02:33:51.108Z,0.00
2023-02-21T02:34:51.098Z,0.00
2023-02-21T02:35:51.086Z,0.00
2023-02-21T02:36:51.074Z,0.00
2023-02-21T02:37:51.072Z,0.00
2023-02-21T02:38:51.080Z,0.00
2023-02-21T02:39:51.052Z,0.00
2023-02-21T02:40:51.038Z,0.00
2023-02-21T02:41:51.027Z,0.00
2023-02-21T02:42:51.009Z,0.00
2023-02-21T02:43:50.993Z,0.00
2023-02-21T02:44:50.984Z,0.00
2023-02-21T02:45:50.972Z,0.00
2023-02-21T02:46:50.961Z,0.00
2023-02-21T02:47:50.947Z,0.00
2023-02-21T02:48:50.935Z,0.00
2023-02-21T02:49:50.923Z,0.00
2023-02-21T02:50:50.914Z,0.00
2023-02-21T02:51:50.915Z,0.00
2023-02-21T02:52:50.889Z,0.00
2023-02-21T02:53:50.876Z,0.00
2023-02-21T02:54:50.891Z,0.00
2023-02-21T02:55:50.860Z,0.00
2023-02-21T02:56:50.847Z,0.00
2023-02-21T02:57:50.831Z,0.00
2023-02-21T02:58:50.825Z,0.00
2023-02-21T02:59:50.815Z,0.00
2023-02-21T03:00:50.806Z,0.00
2023-02-21T03:01:50.916Z,0.00
2023-02-21T03:02:50.777Z,0.00
2023-02-21T03:03:50.805Z,0.00
2023-02-21T03:04:50.755Z,0.00
2023-02-21T03:05:50.742Z,0.00
2023-02-21T03:06:50.734Z,0.00
2023-02-21T03:07:50.719Z,0.00
2023-02-21T03:08:50.708Z,0.00
2023-02-21T03:09:50.696Z,0.00
2023-02-21T03:10:50.714Z,0.00
2023-02-21T03:11:50.676Z,0.00
2023-02-21T03:12:50.662Z,0.00
2023-02-21T03:13:50.653Z,0.00
2023-02-21T03:14:50.640Z,0.00
2023-02-21T03:15:50.685Z,0.00
2023-02-21T03:16:50.619Z,0.00
2023-02-21T03:17:50.620Z,0.00
2023-02-21T03:18:50.595Z,0.00
2023-02-21T03:19:50.590Z,0.00
2023-02-21T03:20:50.574Z,0.00
2023-02-21T03:21:50.570Z,0.00
2023-02-21T03:22:50.557Z,0.00
2023-02-21T03:23:50.551Z,0.00
2023-02-21T03:24:50.530Z,0.00
2023-02-21T03:25:50.525Z,0.00
2023-02-21T03:26:50.530Z,0.00
2023-02-21T03:27:50.503Z,0.00
2023-02-21T03:28:50.490Z,0.00
2023-02-21T03:29:50.483Z,0.00
2023-02-21T03:30:50.463Z,0.00
2023-02-21T03:31:50.578Z,0.00
2023-02-21T03:32:50.439Z,0.00
2023-02-21T03:33:50.433Z,0.00
2023-02-21T03:34:50.417Z,0.00
2023-02-21T03:35:50.409Z,0.00
2023-02-21T03:36:50.395Z,0.00
2023-02-21T03:37:50.386Z,0.00
2023-02-21T03:38:50.373Z,0.00
2023-02-21T03:39:50.365Z,0.00
2023-02-21T03:40:50.353Z,0.00
2023-02-21T03:41:50.340Z,0.00
2023-02-21T03:42:50.355Z,0.00
2023-02-21T03:43:50.320Z,0.00
2023-02-21T03:44:50.304Z,0.00
2023-02-21T03:45:50.296Z,0.00
2023-02-21T03:46:50.405Z,0.00
2023-02-21T03:47:50.291Z,0.00
2023-02-21T03:48:50.261Z,0.00
2023-02-21T03:49:50.256Z,0.00
2023-02-21T03:50:50.236Z,0.00
2023-02-21T03:51:50.228Z,0.00
2023-02-21T03:52:50.215Z,0.00
2023-02-21T03:53:50.210Z,0.00
2023-02-21T03:54:50.194Z,0.00
2023-02-21T03:55:50.185Z,0.00
2023-02-21T03:56:50.177Z,0.00
2023-02-21T03:57:50.174Z,0.00
2023-02-21T03:58:50.175Z,0.00
2023-02-21T03:59:50.146Z,0.00
2023-02-21T04:00:50.190Z,0.00
2023-02-21T04:01:50.140Z,0.00
2023-02-21T04:02:50.106Z,0.00
2023-02-21T04:03:50.096Z,0.00
2023-02-21T04:04:50.083Z,0.00
2023-02-21T04:05:50.073Z,0.00
2023-02-21T04:06:50.061Z,0.00
2023-02-21T04:07:50.058Z,0.00
2023-02-21T04:08:52.218Z,0.00
2023-02-21T04:09:50.029Z,0.00
2023-02-21T04:10:52.442Z,0.00
2023-02-21T04:11:50.015Z,0.00
2023-02-21T04:12:49.995Z,0.00
2023-02-21T04:13:49.986Z,0.00
2023-02-21T04:14:50.012Z,0.00
2023-02-21T04:15:49.976Z,0.00
2023-02-21T04:16:49.950Z,0.00
2023-02-21T04:17:49.942Z,0.00
2023-02-21T04:18:49.929Z,0.00
2023-02-21T04:19:49.924Z,0.00
2023-02-21T04:20:49.906Z,0.00
2023-02-21T04:21:49.900Z,0.00
2023-02-21T04:23:02.738Z,0.00
2023-02-21T04:23:50.901Z,0.00
2023-02-21T04:24:49.870Z,0.00
2023-02-21T04:25:49.853Z,0.00
2023-02-21T04:26:49.851Z,0.00
2023-02-21T04:27:49.831Z,0.00
2023-02-21T04:28:49.819Z,0.00
2023-02-21T04:29:49.822Z,0.00
2023-02-21T04:30:49.820Z,0.00
2023-02-21T04:31:49.856Z,0.00
2023-02-21T04:32:49.778Z,0.00
2023-02-21T04:33:54.937Z,0.00
2023-02-21T04:34:49.759Z,0.00
2023-02-21T04:35:49.745Z,0.00
2023-02-21T04:36:49.729Z,0.00
2023-02-21T04:37:49.720Z,0.00
2023-02-21T04:38:49.707Z,0.00
2023-02-21T04:39:49.696Z,0.00
2023-02-21T04:40:49.685Z,0.00
2023-02-21T04:41:49.675Z,0.00
2023-02-21T04:42:49.663Z,0.00
2023-02-21T04:43:49.670Z,0.00
2023-02-21T04:44:59.765Z,0.00
2023-02-21T04:45:50.696Z,0.00
2023-02-21T04:46:49.642Z,0.00
2023-02-21T04:47:49.617Z,0.00
2023-02-21T04:48:49.597Z,0.00
2023-02-21T04:49:49.587Z,0.00
2023-02-21T04:50:49.577Z,0.00
2023-02-21T04:51:49.566Z,0.00
2023-02-21T04:52:49.559Z,0.00
2023-02-21T04:53:49.542Z,0.00
2023-02-21T04:54:49.528Z,0.00
2023-02-21T04:55:49.520Z,0.00
2023-02-21T04:56:49.597Z,0.00
2023-02-21T04:57:49.498Z,0.00
2023-02-21T04:58:49.484Z,0.00
2023-02-21T04:59:49.473Z,0.00
2023-02-21T05:00:49.484Z,0.00
2023-02-21T05:01:49.455Z,0.00
2023-02-21T05:02:49.468Z,0.00
2023-02-21T05:03:49.454Z,0.00
2023-02-21T05:04:49.462Z,0.00
2023-02-21T05:05:49.410Z,0.00
2023-02-21T05:06:49.404Z,0.00
2023-02-21T05:07:49.386Z,0.00
2023-02-21T05:08:49.380Z,0.00
2023-02-21T05:09:49.377Z,0.00
2023-02-21T05:10:49.350Z,0.00
2023-02-21T05:11:49.342Z,0.00
2023-02-21T05:12:49.330Z,0.00
2023-02-21T05:13:49.328Z,0.00
2023-02-21T05:14:49.310Z,0.00
2023-02-21T05:15:49.297Z,0.00
2023-02-21T05:16:49.321Z,0.00
2023-02-21T05:17:49.274Z,0.00
2023-02-21T05:18:49.295Z,0.00
2023-02-21T05:19:49.254Z,0.00
2023-02-21T05:20:49.239Z,0.00
2023-02-21T05:21:49.233Z,0.00
2023-02-21T05:22:49.216Z,0.00
2023-02-21T05:23:49.209Z,0.00
2023-02-21T05:24:49.194Z,0.00
2023-02-21T05:25:49.184Z,0.00
2023-02-21T05:26:49.171Z,0.00
2023-02-21T05:27:49.161Z,0.00
2023-02-21T05:28:49.147Z,0.00
2023-02-21T05:29:49.138Z,0.00
2023-02-21T05:30:49.211Z,0.00
2023-02-21T05:31:49.171Z,0.00
2023-02-21T05:32:49.217Z,0.00
2023-02-21T05:33:49.094Z,0.00
2023-02-21T05:34:49.152Z,0.00
2023-02-21T05:35:49.073Z,0.00
2023-02-21T05:36:49.060Z,0.00
2023-02-21T05:37:49.050Z,0.00
2023-02-21T05:38:49.038Z,0.00
2023-02-21T05:39:49.097Z,0.00
2023-02-21T05:40:49.019Z,0.00
2023-02-21T05:41:49.021Z,0.00
2023-02-21T05:42:48.992Z,0.00
2023-02-21T05:43:48.981Z,0.00
2023-02-21T05:44:48.971Z,0.00
2023-02-21T05:45:49.001Z,0.00
2023-02-21T05:46:49.004Z,0.00
2023-02-21T05:47:48.938Z,0.00
2023-02-21T05:48:48.926Z,0.00
2023-02-21T05:49:48.917Z,0.00
2023-02-21T05:50:48.943Z,0.00
2023-02-21T05:51:48.919Z,0.00
2023-02-21T05:52:48.883Z,0.00
2023-02-21T05:53:48.874Z,0.00
2023-02-21T05:54:48.860Z,0.00
2023-02-21T05:55:48.850Z,0.00
2023-02-21T05:56:48.837Z,0.00
2023-02-21T05:57:48.827Z,0.00
2023-02-21T05:58:48.811Z,0.00
2023-02-21T05:59:48.806Z,0.00
2023-02-21T06:00:48.789Z,0.00
2023-02-21T06:01:48.780Z,0.00
2023-02-21T06:02:48.771Z,0.00
2023-02-21T06:03:48.808Z,0.00
2023-02-21T06:04:48.746Z,0.00
2023-02-21T06:05:48.750Z,0.00
2023-02-21T06:06:48.745Z,0.00
2023-02-21T06:07:48.709Z,0.00
2023-02-21T06:08:48.699Z,0.00
2023-02-21T06:09:48.690Z,0.00
2023-02-21T06:10:48.731Z,0.00
2023-02-21T06:11:48.671Z,0.00
2023-02-21T06:12:48.659Z,0.00
2023-02-21T06:13:48.648Z,0.00
2023-02-21T06:14:48.633Z,0.00
2023-02-21T06:15:48.652Z,0.00
2023-02-21T06:16:48.610Z,0.00
2023-02-21T06:17:48.600Z,0.00
2023-02-21T06:18:48.588Z,0.00
2023-02-21T06:19:48.585Z,0.00
2023-02-21T06:20:48.572Z,0.00
2023-02-21T06:21:48.587Z,0.00
2023-02-21T06:22:48.599Z,0.00
2023-02-21T06:23:48.545Z,0.00
2023-02-21T06:24:50.079Z,0.00
2023-02-21T06:25:48.512Z,0.00
2023-02-21T06:26:48.500Z,0.00
2023-02-21T06:27:48.488Z,0.00
2023-02-21T06:28:48.483Z,0.00
2023-02-21T06:29:48.479Z,0.00
2023-02-21T06:30:48.641Z,0.00
2023-02-21T06:31:48.504Z,0.00
2023-02-21T06:32:48.432Z,0.00
2023-02-21T06:33:48.430Z,0.00
2023-02-21T06:34:48.412Z,0.00
2023-02-21T06:35:48.402Z,0.00
2023-02-21T06:36:48.392Z,0.00
2023-02-21T06:37:48.382Z,0.00
2023-02-21T06:38:48.393Z,0.00
2023-02-21T06:39:48.365Z,0.00
2023-02-21T06:40:48.345Z,0.00
2023-02-21T06:41:48.334Z,0.00
2023-02-21T06:42:48.324Z,0.00
2023-02-21T06:43:48.320Z,0.00
2023-02-21T06:44:48.304Z,0.00
2023-02-21T06:45:48.294Z,0.00
2023-02-21T06:46:48.288Z,0.00
2023-02-21T06:47:48.271Z,0.00
2023-02-21T06:48:48.261Z,0.00
2023-02-21T06:49:48.252Z,0.00
2023-02-21T06:50:48.238Z,0.00
2023-02-21T06:51:48.248Z,0.00
2023-02-21T06:52:48.221Z,0.00
2023-02-21T06:53:48.203Z,0.00
2023-02-21T06:54:48.216Z,0.00
2023-02-21T06:55:48.191Z,0.00
2023-02-21T06:56:48.172Z,0.00
2023-02-21T06:57:48.159Z,0.00
2023-02-21T06:58:48.146Z,0.00
2023-02-21T06:59:48.161Z,0.00
2023-02-21T07:00:48.126Z,0.00
2023-02-21T07:01:48.164Z,0.00
2023-02-21T07:02:48.102Z,0.00
2023-02-21T07:03:48.092Z,0.00
2023-02-21T07:04:48.118Z,0.00
2023-02-21T07:05:48.071Z,0.00
2023-02-21T07:06:48.057Z,0.00
2023-02-21T07:07:48.057Z,0.00
2023-02-21T07:08:48.037Z,0.00
2023-02-21T07:09:48.025Z,0.00
2023-02-21T07:10:48.037Z,0.00
2023-02-21T07:11:48.016Z,0.00
2023-02-21T07:12:47.991Z,0.00
2023-02-21T07:13:47.980Z,0.00
2023-02-21T07:14:47.984Z,0.00
2023-02-21T07:15:47.986Z,0.00
2023-02-21T07:16:47.945Z,0.00
2023-02-21T07:17:47.933Z,0.00
2023-02-21T07:18:47.930Z,0.00
2023-02-21T07:19:47.912Z,0.00
2023-02-21T07:20:47.898Z,0.00
2023-02-21T07:21:47.892Z,0.00
2023-02-21T07:22:47.884Z,0.00
2023-02-21T07:23:47.868Z,0.00
2023-02-21T07:24:48.076Z,0.00
2023-02-21T07:25:48.005Z,0.00
2023-02-21T07:26:47.854Z,0.00
2023-02-21T07:27:47.896Z,0.00
2023-02-21T07:28:47.854Z,0.00
2023-02-21T07:29:47.813Z,0.00
2023-02-21T07:30:47.925Z,0.00
2023-02-21T07:31:47.926Z,0.00
2023-02-21T07:32:47.764Z,0.00
2023-02-21T07:33:47.758Z,0.00
2023-02-21T07:34:47.741Z,0.00
2023-02-21T07:35:47.731Z,0.00
2023-02-21T07:36:47.782Z,0.00
2023-02-21T07:37:47.716Z,0.00
2023-02-21T07:38:47.703Z,0.00
2023-02-21T07:39:47.687Z,0.00
2023-02-21T07:40:47.677Z,0.00
2023-02-21T07:41:47.661Z,0.00
2023-02-21T07:42:47.676Z,0.00
2023-02-21T07:43:47.640Z,0.00
2023-02-21T07:44:47.632Z,0.00
2023-02-21T07:45:47.621Z,0.00
2023-02-21T07:46:47.610Z,0.00
2023-02-21T07:47:48.285Z,0.00
2023-02-21T07:48:47.590Z,0.00
2023-02-21T07:49:47.584Z,0.00
2023-02-21T07:50:47.565Z,0.00
2023-02-21T07:51:47.554Z,0.00
2023-02-21T07:52:47.547Z,0.00
2023-02-21T07:53:47.543Z,0.00
2023-02-21T07:54:47.522Z,0.00
2023-02-21T07:55:47.532Z,0.00
2023-02-21T07:56:47.500Z,0.00
2023-02-21T07:57:47.498Z,0.00
2023-02-21T07:58:47.532Z,0.00
2023-02-21T07:59:47.463Z,0.00
2023-02-21T08:00:47.458Z,0.00
2023-02-21T08:01:47.468Z,0.00
2023-02-21T08:02:47.436Z,0.00
2023-02-21T08:03:47.418Z,0.00
2023-02-21T08:04:47.443Z,0.00
2023-02-21T08:05:47.404Z,0.00
2023-02-21T08:06:47.407Z,0.00
2023-02-21T08:07:47.377Z,0.00
2023-02-21T08:08:47.366Z,0.00
2023-02-21T08:09:47.357Z,0.00
2023-02-21T08:10:47.344Z,0.00
2023-02-21T08:11:47.327Z,0.00
2023-02-21T08:12:47.320Z,0.00
2023-02-21T08:13:47.315Z,0.00
2023-02-21T08:14:47.317Z,0.00
2023-02-21T08:15:47.355Z,0.00
2023-02-21T08:16:47.276Z,0.00
2023-02-21T08:17:47.260Z,0.00
2023-02-21T08:18:47.250Z,0.00
2023-02-21T08:19:47.237Z,0.00
2023-02-21T08:20:47.235Z,0.00
2023-02-21T08:21:47.222Z,0.00
2023-02-21T08:22:47.214Z,0.00
2023-02-21T08:23:47.200Z,0.00
2023-02-21T08:24:47.181Z,0.00
2023-02-21T08:25:47.169Z,0.00
2023-02-21T08:26:47.162Z,0.00
2023-02-21T08:27:47.152Z,0.00
2023-02-21T08:28:47.137Z,0.00
2023-02-21T08:29:47.131Z,0.00
2023-02-21T08:30:47.139Z,0.00
2023-02-21T08:31:47.128Z,0.00
2023-02-21T08:32:47.095Z,0.00
2023-02-21T08:33:47.079Z,0.00
2023-02-21T08:34:47.068Z,0.00
2023-02-21T08:35:47.055Z,0.00
2023-02-21T08:36:47.053Z,0.00
2023-02-21T08:37:47.039Z,0.00
2023-02-21T08:38:47.030Z,0.00
2023-02-21T08:39:47.067Z,0.00
2023-02-21T08:40:47.006Z,0.00
2023-02-21T08:41:46.993Z,0.00
2023-02-21T08:42:46.979Z,0.00
2023-02-21T08:43:46.971Z,0.00
2023-02-21T08:44:46.976Z,0.00
2023-02-21T08:45:46.988Z,0.00
2023-02-21T08:46:49.593Z,0.00
2023-02-21T08:47:46.928Z,0.00
2023-02-21T08:48:46.934Z,0.00
2023-02-21T08:49:46.946Z,0.00
2023-02-21T08:50:46.902Z,0.00
2023-02-21T08:51:46.911Z,0.00
2023-02-21T08:52:46.947Z,0.00
2023-02-21T08:53:46.886Z,0.00
2023-02-21T08:54:46.855Z,0.00
2023-02-21T08:55:46.842Z,0.00
2023-02-21T08:56:46.846Z,0.00
2023-02-21T08:57:46.813Z,0.00
2023-02-21T08:58:46.803Z,0.00
2023-02-21T08:59:46.808Z,0.00
2023-02-21T09:00:46.840Z,0.00
2023-02-21T09:01:46.804Z,0.00
2023-02-21T09:02:46.782Z,0.00
2023-02-21T09:03:46.747Z,0.00
2023-02-21T09:04:46.751Z,0.00
2023-02-21T09:05:46.726Z,0.00
2023-02-21T09:06:46.716Z,0.00
2023-02-21T09:07:46.704Z,0.00
2023-02-21T09:08:46.691Z,0.00
2023-02-21T09:09:46.693Z,0.00
2023-02-21T09:10:46.720Z,0.00
2023-02-21T09:11:46.663Z,0.00
2023-02-21T09:12:46.650Z,0.00
2023-02-21T09:13:46.744Z,0.00
2023-02-21T09:14:46.620Z,0.00
2023-02-21T09:15:46.618Z,0.00
2023-02-21T09:16:47.947Z,0.00
2023-02-21T09:17:46.626Z,0.00
2023-02-21T09:18:46.622Z,0.00
2023-02-21T09:19:46.565Z,0.00
2023-02-21T09:20:46.560Z,0.00
2023-02-21T09:21:46.543Z,0.00
2023-02-21T09:22:46.530Z,0.00
2023-02-21T09:23:46.522Z,0.00
2023-02-21T09:24:46.513Z,0.00
2023-02-21T09:25:46.501Z,0.00
2023-02-21T09:26:46.521Z,0.00
2023-02-21T09:27:46.494Z,0.00
2023-02-21T09:28:46.469Z,0.00
2023-02-21T09:29:47.010Z,0.00
2023-02-21T09:30:46.466Z,0.00
2023-02-21T09:31:46.483Z,0.00
2023-02-21T09:32:46.492Z,0.00
2023-02-21T09:33:46.409Z,0.00
2023-02-21T09:34:46.432Z,0.00
2023-02-21T09:35:46.389Z,0.00
2023-02-21T09:36:46.376Z,0.00
2023-02-21T09:37:46.369Z,0.00
2023-02-21T09:38:46.372Z,0.00
2023-02-21T09:39:46.341Z,0.00
2023-02-21T09:40:46.432Z,0.00
2023-02-21T09:41:46.321Z,0.00
2023-02-21T09:42:46.310Z,0.00
2023-02-21T09:43:46.305Z,0.00
2023-02-21T09:44:46.388Z,0.00
2023-02-21T09:45:46.314Z,0.00
2023-02-21T09:46:46.273Z,0.00
2023-02-21T09:47:46.255Z,0.00
2023-02-21T09:48:46.243Z,0.00
2023-02-21T09:49:46.230Z,0.00
2023-02-21T09:50:46.272Z,0.00
2023-02-21T09:51:46.218Z,0.00
2023-02-21T09:52:46.197Z,0.00
2023-02-21T09:53:46.188Z,0.00
2023-02-21T09:54:46.177Z,0.00
2023-02-21T09:55:46.159Z,0.00
2023-02-21T09:56:46.158Z,0.00
2023-02-21T09:57:46.142Z,0.00
2023-02-21T09:58:46.128Z,0.00
2023-02-21T09:59:46.128Z,0.00
2023-02-21T10:00:46.988Z,0.00
2023-02-21T10:01:46.089Z,0.00
2023-02-21T10:02:46.080Z,0.00
2023-02-21T10:03:46.088Z,0.00
2023-02-21T10:04:46.137Z,0.00
2023-02-21T10:05:46.044Z,0.00
2023-02-21T10:06:46.056Z,0.00
2023-02-21T10:07:46.129Z,0.00
2023-02-21T10:08:46.014Z,0.00
2023-02-21T10:09:46.006Z,0.00
2023-02-21T10:10:46.006Z,0.00
2023-02-21T10:11:45.977Z,0.00
2023-02-21T10:12:45.982Z,0.00
2023-02-21T10:13:45.963Z,0.00
2023-02-21T10:14:45.943Z,0.00
2023-02-21T10:15:45.932Z,0.00
2023-02-21T10:16:46.002Z,0.00
2023-02-21T10:17:45.908Z,0.00
2023-02-21T10:18:45.899Z,0.00
2023-02-21T10:19:45.886Z,0.00
2023-02-21T10:20:45.872Z,0.00
2023-02-21T10:21:45.870Z,0.00
2023-02-21T10:22:45.878Z,0.00
2023-02-21T10:23:45.841Z,0.00
2023-02-21T10:24:45.830Z,0.00
2023-02-21T10:25:45.816Z,0.00
2023-02-21T10:26:45.804Z,0.00
2023-02-21T10:27:45.824Z,0.00
2023-02-21T10:28:45.787Z,0.00
2023-02-21T10:29:45.772Z,0.00
2023-02-21T10:30:45.898Z,0.00
2023-02-21T10:31:45.894Z,0.00
2023-02-21T10:32:45.742Z,0.00
2023-02-21T10:33:45.728Z,0.00
2023-02-21T10:34:47.296Z,0.00
2023-02-21T10:35:45.712Z,0.00
2023-02-21T10:36:45.705Z,0.00
2023-02-21T10:37:45.689Z,0.00
2023-02-21T10:38:45.704Z,0.00
2023-02-21T10:39:45.664Z,0.00
2023-02-21T10:40:45.652Z,0.00
2023-02-21T10:41:45.640Z,0.00
2023-02-21T10:42:45.631Z,0.00
2023-02-21T10:43:45.622Z,0.00
2023-02-21T10:44:45.612Z,0.00
2023-02-21T10:45:46.915Z,0.00
2023-02-21T10:46:45.585Z,0.00
2023-02-21T10:47:45.581Z,0.00
2023-02-21T10:48:45.563Z,0.00
2023-02-21T10:49:45.550Z,0.00
2023-02-21T10:50:45.546Z,0.00
2023-02-21T10:51:45.543Z,0.00
2023-02-21T10:52:45.535Z,0.00
2023-02-21T10:53:45.506Z,0.71
2023-02-21T10:54:45.528Z,0.00
2023-02-21T10:55:45.486Z,1.63
2023-02-21T10:56:45.476Z,0.00
2023-02-21T10:57:45.465Z,0.00
2023-02-21T10:58:45.463Z,7.14
2023-02-21T10:59:45.461Z,5.41
2023-02-21T11:00:45.434Z,0.71
2023-02-21T11:01:45.522Z,2.75
2023-02-21T11:02:45.465Z,4.59
2023-02-21T11:03:45.398Z,8.67
2023-02-21T11:04:45.389Z,10.00
2023-02-21T11:05:45.376Z,11.43
2023-02-21T11:06:45.363Z,14.69
2023-02-21T11:07:45.352Z,9.18
2023-02-21T11:08:45.342Z,11.32
2023-02-21T11:09:45.334Z,19.90
2023-02-21T11:10:45.340Z,14.49
2023-02-21T11:11:45.319Z,18.06
2023-02-21T11:12:45.317Z,15.00
2023-02-21T11:13:45.284Z,11.84
2023-02-21T11:14:45.306Z,7.45
2023-02-21T11:15:45.305Z,2.34
2023-02-21T11:16:45.258Z,3.16
2023-02-21T11:17:45.240Z,5.61
2023-02-21T11:18:45.249Z,14.39
2023-02-21T11:19:45.227Z,7.14
2023-02-21T11:20:45.223Z,4.49
2023-02-21T11:21:45.229Z,8.06
2023-02-21T11:22:45.199Z,8.58
2023-02-21T11:23:45.178Z,3.06
2023-02-21T11:24:45.181Z,4.38
2023-02-21T11:25:45.155Z,14.59
2023-02-21T11:26:45.173Z,14.69
2023-02-21T11:27:46.495Z,11.83
2023-02-21T11:28:45.124Z,16.12
2023-02-21T11:29:45.110Z,18.16
2023-02-21T11:30:45.236Z,17.14
2023-02-21T11:31:45.272Z,11.11
2023-02-21T11:32:45.081Z,18.66
2023-02-21T11:33:45.072Z,21.31
2023-02-21T11:34:45.065Z,17.74
2023-02-21T11:35:45.046Z,18.56
2023-02-21T11:36:45.045Z,16.93
2023-02-21T11:37:45.038Z,23.46
2023-02-21T11:38:45.025Z,24.68
2023-02-21T11:39:45.004Z,23.35
2023-02-21T11:40:45.094Z,19.68
2023-02-21T11:41:44.981Z,22.24
2023-02-21T11:42:44.999Z,17.74
2023-02-21T11:43:46.549Z,15.41
2023-02-21T11:44:44.951Z,23.26
2023-02-21T11:45:44.962Z,24.59
2023-02-21T11:46:44.933Z,20.92
2023-02-21T11:47:44.929Z,17.76
2023-02-21T11:48:44.914Z,18.16
2023-02-21T11:49:47.836Z,21.42
2023-02-21T11:50:44.885Z,16.73
2023-02-21T11:51:44.879Z,21.42
2023-02-21T11:52:44.861Z,19.59
2023-02-21T11:53:44.854Z,20.51
2023-02-21T11:54:44.867Z,18.06
2023-02-21T11:55:44.832Z,25.51
2023-02-21T11:56:44.819Z,24.38
2023-02-21T11:57:44.837Z,18.87
2023-02-21T11:58:44.846Z,12.45
2023-02-21T11:59:44.788Z,10.91
2023-02-21T12:00:44.778Z,16.02
2023-02-21T12:01:44.760Z,18.98
2023-02-21T12:02:44.815Z,19.18
2023-02-21T12:03:44.736Z,21.22
2023-02-21T12:04:44.732Z,20.81
2023-02-21T12:05:44.831Z,26.02
2023-02-21T12:06:44.702Z,26.44
2023-02-21T12:07:44.692Z,22.05
2023-02-21T12:08:44.682Z,23.27
2023-02-21T12:09:44.675Z,21.13
2023-02-21T12:10:44.654Z,22.25
2023-02-21T12:11:44.644Z,23.48
2023-02-21T12:12:44.633Z,22.45
2023-02-21T12:13:44.621Z,26.84
2023-02-21T12:14:44.730Z,25.92
2023-02-21T12:15:44.650Z,27.14
2023-02-21T12:16:44.588Z,27.55
2023-02-21T12:17:44.581Z,28.25
2023-02-21T12:18:44.575Z,31.12
2023-02-21T12:19:44.571Z,31.02
2023-02-21T12:20:44.543Z,31.22
2023-02-21T12:21:44.535Z,30.91
2023-02-21T12:22:44.520Z,33.06
2023-02-21T12:23:44.511Z,30.91
2023-02-21T12:24:44.514Z,28.16
2023-02-21T12:25:44.493Z,29.59
2023-02-21T12:26:44.682Z,26.43
2023-02-21T12:27:44.465Z,29.69
2023-02-21T12:28:44.463Z,27.14
2023-02-21T12:29:44.448Z,28.67
2023-02-21T12:30:44.481Z,27.24
2023-02-21T12:31:44.575Z,29.39
2023-02-21T12:32:44.412Z,23.35
2023-02-21T12:33:44.402Z,29.47
2023-02-21T12:34:44.397Z,32.84
2023-02-21T12:35:44.401Z,33.04
2023-02-21T12:36:44.381Z,35.39
2023-02-21T12:37:44.367Z,38.33
2023-02-21T12:38:44.358Z,36.90
2023-02-21T12:39:44.338Z,35.06
2023-02-21T12:40:44.397Z,39.25
2023-02-21T12:41:44.318Z,38.43
2023-02-21T12:42:44.313Z,43.73
2023-02-21T12:43:44.294Z,37.84
2023-02-21T12:44:44.283Z,34.56
2023-02-21T12:45:44.273Z,41.16
2023-02-21T12:46:44.358Z,43.61
2023-02-21T12:47:44.255Z,41.16
2023-02-21T12:48:44.242Z,46.15
2023-02-21T12:49:44.230Z,48.30
2023-02-21T12:50:44.218Z,51.86
2023-02-21T12:51:44.207Z,52.58
2023-02-21T12:52:44.197Z,44.71
2023-02-21T12:53:44.182Z,51.43
2023-02-21T12:54:44.175Z,54.79
2023-02-21T12:55:44.161Z,53.80
2023-02-21T12:56:44.150Z,50.74
2023-02-21T12:57:44.142Z,55.33
2023-02-21T12:58:44.134Z,49.52
2023-02-21T12:59:44.211Z,52.50
2023-02-21T13:00:44.121Z,46.38
2023-02-21T13:01:44.302Z,51.38
2023-02-21T13:02:44.222Z,51.89
2023-02-21T13:03:44.070Z,48.02
2023-02-21T13:04:44.055Z,44.24
2023-02-21T13:05:44.062Z,41.80
2023-02-21T13:06:44.033Z,43.23
2023-02-21T13:07:44.025Z,45.08
2023-02-21T13:08:44.008Z,43.94
2023-02-21T13:09:44.007Z,40.88
2023-02-21T13:10:43.985Z,41.51
2023-02-21T13:11:43.977Z,39.37
2023-02-21T13:12:43.965Z,42.43
2023-02-21T13:13:43.953Z,38.76
2023-02-21T13:14:43.944Z,42.53